Time;durP1;ratioP1;P1;durP2;ratioP2;P2;SDS_P1;SDS_P2;PMS_P1;PMS_P2;Temp;Humidity;BMP_temperature;BMP_pressure;BME280_temperature;BME280_humidity;BME280_pressure;Samples;Min_cycle;Max_cycle;Signal;HPM_P1;HPM_P2
2022/11/19 00:00:46;;;;;;;15.07;7.10;;;9.60;99.90;;;;;;5053782;28;20270;-53
2022/11/19 00:03:16;;;;;;;12.23;6.78;;;9.60;99.90;;;;;;5054243;28;20170;-53
2022/11/19 00:05:49;;;;;;;12.10;6.90;;;9.60;99.90;;;;;;5054097;28;20173;-54
2022/11/19 00:08:19;;;;;;;15.25;7.43;;;9.60;99.90;;;;;;5053649;28;20205;-52
2022/11/19 00:10:46;;;;;;;10.13;6.75;;;9.60;99.90;;;;;;5054355;28;20183;-54
2022/11/19 00:13:13;;;;;;;12.25;7.07;;;9.60;99.90;;;;;;5053965;28;20197;-52
2022/11/19 00:15:39;;;;;;;12.80;6.78;;;9.60;99.90;;;;;;5053913;28;20171;-55
2022/11/19 00:18:05;;;;;;;8.52;6.20;;;9.60;99.90;;;;;;5053895;28;20170;-50
2022/11/19 00:20:32;;;;;;;9.85;6.68;;;9.60;99.90;;;;;;5053922;28;20185;-53
2022/11/19 00:22:59;;;;;;;9.38;6.60;;;9.60;99.90;;;;;;5053573;28;20170;-53
2022/11/19 00:25:28;;;;;;;9.80;6.57;;;9.60;99.90;;;;;;5053726;28;20205;-52
2022/11/19 00:27:55;;;;;;;9.23;7.05;;;9.60;99.90;;;;;;5052910;28;20194;-52
2022/11/19 00:30:21;;;;;;;12.48;6.80;;;9.60;99.90;;;;;;5054249;28;20529;-50
2022/11/19 00:32:47;;;;;;;9.48;6.53;;;9.60;99.90;;;;;;5053569;28;20167;-52
2022/11/19 00:35:13;;;;;;;9.10;6.72;;;9.60;99.90;;;;;;5053805;28;20167;-52
2022/11/19 00:37:39;;;;;;;9.13;6.20;;;9.60;99.90;;;;;;5053798;28;20177;-51
2022/11/19 00:40:06;;;;;;;10.05;7.10;;;9.60;99.90;;;;;;5053908;28;20166;-51
2022/11/19 00:42:32;;;;;;;7.28;6.53;;;9.70;99.90;;;;;;5053951;28;20174;-52
2022/11/19 00:44:58;;;;;;;8.73;6.50;;;9.70;99.90;;;;;;5053841;28;20171;-51
2022/11/19 00:47:24;;;;;;;11.43;6.43;;;9.60;99.90;;;;;;5053552;28;20171;-52
2022/11/19 00:49:49;;;;;;;10.15;6.68;;;9.60;99.90;;;;;;5053956;28;20203;-52
2022/11/19 00:52:15;;;;;;;9.98;7.05;;;9.50;99.90;;;;;;5053527;28;20171;-52
2022/11/19 00:54:40;;;;;;;9.55;6.68;;;9.60;99.90;;;;;;5053491;28;20174;-53
2022/11/19 00:57:06;;;;;;;9.73;7.25;;;9.50;99.90;;;;;;5053491;28;20167;-51
2022/11/19 00:59:31;;;;;;;11.73;7.50;;;9.60;99.90;;;;;;5053181;28;20213;-52
2022/11/19 01:01:57;;;;;;;11.80;7.57;;;9.50;99.90;;;;;;5053379;28;20254;-52
2022/11/19 01:04:22;;;;;;;10.90;6.85;;;9.50;99.90;;;;;;5053064;28;20577;-52
2022/11/19 01:06:48;;;;;;;13.68;7.75;;;9.50;99.90;;;;;;5053262;28;20163;-53
2022/11/19 01:09:14;;;;;;;10.93;7.57;;;9.60;99.90;;;;;;5053104;28;20209;-52
2022/11/19 01:11:39;;;;;;;14.15;8.70;;;9.60;99.90;;;;;;5053152;28;20175;-51
2022/11/19 01:14:06;;;;;;;10.85;7.65;;;9.60;99.90;;;;;;5053279;28;20648;-51
2022/11/19 01:16:35;;;;;;;10.93;8.32;;;9.60;99.90;;;;;;5053290;28;20229;-53
2022/11/19 01:19:02;;;;;;;11.95;8.68;;;9.50;99.90;;;;;;5052973;28;20170;-51
2022/11/19 01:21:30;;;;;;;11.75;9.32;;;9.50;99.90;;;;;;5052919;28;20219;-53
2022/11/19 01:23:56;;;;;;;13.50;8.27;;;9.60;99.90;;;;;;5053135;28;20536;-52
2022/11/19 01:26:22;;;;;;;13.38;8.57;;;9.50;99.90;;;;;;5052895;28;20163;-51
2022/11/19 01:28:48;;;;;;;15.40;8.80;;;9.50;99.90;;;;;;5053083;28;20268;-52
2022/11/19 01:31:21;;;;;;;13.43;7.97;;;9.50;99.90;;;;;;5052683;28;20183;-53
2022/11/19 01:33:47;;;;;;;10.82;7.95;;;9.50;99.90;;;;;;5052679;28;20162;-53
2022/11/19 01:36:15;;;;;;;9.77;7.43;;;9.50;99.90;;;;;;5052571;28;20244;-53
2022/11/19 01:38:41;;;;;;;12.02;7.95;;;9.50;99.90;;;;;;5052286;28;20216;-50
2022/11/19 01:41:07;;;;;;;11.00;7.53;;;9.50;99.90;;;;;;5052505;28;20167;-53
2022/11/19 01:43:40;;;;;;;12.35;8.48;;;9.40;99.90;;;;;;5052539;28;20250;-51
2022/11/19 01:46:06;;;;;;;11.90;8.50;;;9.40;99.90;;;;;;5052786;28;20248;-50
2022/11/19 01:48:37;;;;;;;11.50;8.60;;;9.50;99.90;;;;;;5052317;28;20256;-50
2022/11/19 01:51:18;;;;;;;11.85;8.27;;;9.40;99.90;;;;;;5052451;28;20166;-51
2022/11/19 01:53:45;;;;;;;11.77;7.93;;;9.50;99.90;;;;;;5052334;28;20167;-52
2022/11/19 01:56:11;;;;;;;12.55;8.55;;;9.30;99.90;;;;;;5052291;28;20167;-51
2022/11/19 01:58:40;;;;;;;12.23;8.40;;;9.50;99.90;;;;;;5052214;28;20536;-51
2022/11/19 02:01:07;;;;;;;12.18;8.50;;;9.50;99.90;;;;;;5052029;28;20577;-50
2022/11/19 02:03:34;;;;;;;11.40;8.55;;;9.50;99.90;;;;;;5052387;28;20210;-51
2022/11/19 02:06:01;;;;;;;17.10;10.02;;;9.50;99.90;;;;;;5052053;28;20167;-50
2022/11/19 02:08:41;;;;;;;15.30;10.30;;;9.40;99.90;;;;;;5052108;28;20202;-51
2022/11/19 02:11:38;;;;;;;14.20;9.57;;;9.50;99.90;;;;;;5052008;28;20177;-50
2022/11/19 02:14:16;;;;;;;14.90;8.32;;;9.20;99.90;;;;;;5052091;28;20220;-50
2022/11/19 02:17:09;;;;;;;11.23;8.45;;;9.00;99.90;;;;;;5051671;28;20177;-50
2022/11/19 02:20:14;;;;;;;14.25;9.43;;;9.00;99.90;;;;;;5051919;28;20162;-50
2022/11/19 02:22:46;;;;;;;9.98;8.30;;;8.90;99.90;;;;;;5051892;28;20191;-52
2022/11/19 02:25:29;;;;;;;10.27;7.07;;;8.80;99.90;;;;;;5051799;28;20162;-52
2022/11/19 02:28:21;;;;;;;8.13;6.47;;;8.70;99.90;;;;;;5051792;28;20187;-50
2022/11/19 02:30:49;;;;;;;6.88;5.80;;;8.70;99.90;;;;;;5052078;28;20534;-50
2022/11/19 02:33:15;;;;;;;9.13;6.72;;;8.60;99.90;;;;;;5051616;28;20590;-49
2022/11/19 02:35:57;;;;;;;6.95;6.00;;;8.50;99.90;;;;;;5051680;28;20249;-50
2022/11/19 02:38:26;;;;;;;9.10;6.63;;;8.50;99.90;;;;;;5051608;28;20159;-52
2022/11/19 02:40:59;;;;;;;8.90;6.57;;;8.40;99.90;;;;;;5051706;28;20198;-50
2022/11/19 02:43:39;;;;;;;10.23;6.53;;;8.30;99.90;;;;;;5051705;28;20188;-51
2022/11/19 02:46:11;;;;;;;8.32;6.32;;;8.40;99.90;;;;;;5051728;28;20241;-50
2022/11/19 02:48:40;;;;;;;10.65;6.53;;;8.30;99.90;;;;;;5051574;28;20194;-50
2022/11/19 02:51:07;;;;;;;7.72;6.20;;;8.20;99.90;;;;;;5055180;28;20526;-52
2022/11/19 02:53:33;;;;;;;8.40;5.45;;;8.10;99.90;;;;;;5055679;28;20638;-52
2022/11/19 02:56:16;;;;;;;7.63;5.78;;;8.00;99.90;;;;;;5055725;28;20178;-50
2022/11/19 03:04:28;;;;;;;8.25;6.20;;;7.90;99.90;;;;;;5015902;28;20175;-52
2022/11/19 03:06:57;;;;;;;9.23;6.15;;;7.80;99.90;;;;;;5016009;28;20219;-53
2022/11/19 03:09:22;;;;;;;8.18;5.75;;;7.80;99.90;;;;;;5015735;28;20212;-52
2022/11/19 03:11:54;;;;;;;10.20;5.95;;;7.70;99.90;;;;;;5016106;28;20210;-51
2022/11/19 03:17:41;;;;;;;10.68;7.32;;;7.60;99.90;;;;;;5015895;28;20194;-52
2022/11/19 03:20:37;;;;;;;9.82;7.18;;;7.60;99.90;;;;;;5015505;28;20167;-53
2022/11/19 03:23:28;;;;;;;14.02;7.50;;;7.50;99.90;;;;;;5015603;28;20168;-51
2022/11/19 03:26:03;;;;;;;9.27;6.38;;;7.40;99.90;;;;;;5004864;28;20595;-52
2022/11/19 03:28:34;;;;;;;11.48;7.63;;;7.30;99.90;;;;;;5015285;28;20730;-53
2022/11/19 03:31:01;;;;;;;9.75;7.35;;;7.20;99.90;;;;;;5014946;28;20640;-50
2022/11/19 03:33:34;;;;;;;12.55;7.00;;;7.10;99.90;;;;;;5015006;28;20171;-52
2022/11/19 03:36:07;;;;;;;12.02;7.75;;;7.10;99.90;;;;;;5015317;28;20178;-52
2022/11/19 03:38:41;;;;;;;12.45;7.35;;;7.10;99.90;;;;;;5015217;28;20255;-53
2022/11/19 03:41:07;;;;;;;13.25;6.97;;;7.10;99.90;;;;;;5015279;28;20650;-52
2022/11/19 03:43:37;;;;;;;10.98;6.45;;;7.20;99.90;;;;;;5015181;28;20644;-53
2022/11/19 03:46:06;;;;;;;8.95;6.63;;;7.10;99.90;;;;;;5015390;28;20175;-53
2022/11/19 03:48:33;;;;;;;12.25;6.68;;;7.00;99.90;;;;;;5015021;28;20208;-53
2022/11/19 03:51:16;;;;;;;9.13;6.25;;;7.00;99.90;;;;;;5014975;28;20172;-53
2022/11/19 03:53:42;;;;;;;11.77;7.75;;;6.80;99.90;;;;;;5015084;28;20211;-52
2022/11/19 03:56:12;;;;;;;9.93;6.13;;;6.70;99.90;;;;;;5015056;28;20200;-52
2022/11/19 03:58:40;;;;;;;11.80;7.07;;;6.70;99.90;;;;;;5014879;28;20647;-52
2022/11/19 04:01:07;;;;;;;10.50;6.93;;;6.60;99.90;;;;;;5048163;28;20272;-53
2022/11/19 04:03:33;;;;;;;10.98;6.43;;;6.70;99.90;;;;;;5054265;28;20593;-53
2022/11/19 04:05:58;;;;;;;10.45;6.40;;;6.60;99.90;;;;;;5053304;28;20212;-50
2022/11/19 04:08:24;;;;;;;13.55;7.10;;;6.60;99.90;;;;;;5054359;28;20553;-52
2022/11/19 04:10:50;;;;;;;12.95;7.85;;;6.50;99.90;;;;;;5054498;28;20171;-51
2022/11/19 04:13:15;;;;;;;9.90;6.38;;;6.50;99.90;;;;;;5054279;28;20167;-52
2022/11/19 04:15:41;;;;;;;14.38;7.85;;;6.50;99.90;;;;;;5054311;28;20178;-51
2022/11/19 04:18:06;;;;;;;15.30;8.18;;;6.40;99.90;;;;;;5054256;28;20174;-51
2022/11/19 04:20:32;;;;;;;18.30;9.50;;;6.40;99.90;;;;;;5054243;28;20190;-49
2022/11/19 04:22:58;;;;;;;12.77;8.45;;;6.50;99.90;;;;;;5054096;28;20163;-52
2022/11/19 04:25:23;;;;;;;16.95;9.13;;;6.50;99.90;;;;;;5053986;28;20217;-52
2022/11/19 04:27:49;;;;;;;16.67;9.52;;;6.30;99.90;;;;;;5054307;28;20218;-51
2022/11/19 04:30:15;;;;;;;14.05;8.35;;;6.30;99.90;;;;;;5053984;28;20171;-52
2022/11/19 04:32:41;;;;;;;15.10;9.15;;;6.30;99.90;;;;;;5054085;28;20171;-51
2022/11/19 04:35:07;;;;;;;20.10;10.13;;;6.40;99.90;;;;;;5053857;28;20692;-51
2022/11/19 04:37:33;;;;;;;16.27;9.50;;;6.50;99.90;;;;;;5053862;28;20171;-51
2022/11/19 04:39:58;;;;;;;15.90;10.13;;;6.30;99.90;;;;;;5053756;28;20212;-52
2022/11/19 04:42:24;;;;;;;13.98;8.45;;;6.40;99.90;;;;;;5053819;28;20181;-52
2022/11/19 04:44:50;;;;;;;17.65;10.35;;;6.40;99.90;;;;;;5054100;28;20181;-51
2022/11/19 04:47:15;;;;;;;19.70;10.90;;;6.30;99.90;;;;;;5053948;28;20293;-50
2022/11/19 04:49:41;;;;;;;16.35;9.63;;;6.30;99.90;;;;;;5053543;28;20662;-51
2022/11/19 04:52:07;;;;;;;17.10;9.98;;;6.10;99.90;;;;;;5053486;28;20624;-52
2022/11/19 04:54:32;;;;;;;17.70;10.55;;;6.20;99.90;;;;;;5053525;28;20175;-51
2022/11/19 04:56:58;;;;;;;15.13;9.65;;;6.20;99.90;;;;;;5053504;28;20186;-51
2022/11/19 04:59:23;;;;;;;14.15;8.40;;;6.10;99.90;;;;;;5052395;28;20207;-52
2022/11/19 05:01:49;;;;;;;21.63;10.88;;;6.10;99.90;;;;;;5053686;28;20174;-52
2022/11/19 05:04:14;;;;;;;16.83;9.93;;;6.20;99.90;;;;;;5053264;28;20174;-52
2022/11/19 05:06:40;;;;;;;13.25;8.15;;;6.10;99.90;;;;;;5053345;28;20170;-52
2022/11/19 05:09:06;;;;;;;19.48;9.63;;;6.00;99.90;;;;;;5053197;28;20622;-51
2022/11/19 05:11:31;;;;;;;16.10;9.60;;;6.10;99.90;;;;;;5053209;28;20543;-51
2022/11/19 05:13:57;;;;;;;19.17;9.35;;;6.10;99.90;;;;;;5052362;28;20520;-51
2022/11/19 05:16:22;;;;;;;17.88;9.80;;;6.00;99.90;;;;;;5053127;28;20174;-52
2022/11/19 05:18:48;;;;;;;12.77;8.52;;;6.00;99.90;;;;;;5053372;28;20166;-49
2022/11/19 05:21:13;;;;;;;15.90;8.80;;;6.00;99.90;;;;;;5052966;28;20220;-52
2022/11/19 05:23:39;;;;;;;17.13;9.25;;;6.00;99.90;;;;;;5052985;28;20167;-51
2022/11/19 05:26:05;;;;;;;14.52;8.32;;;5.80;99.90;;;;;;5052902;28;20167;-50
2022/11/19 05:28:31;;;;;;;16.23;9.18;;;6.00;99.90;;;;;;5052810;28;20206;-51
2022/11/19 05:30:57;;;;;;;16.02;8.43;;;5.90;99.90;;;;;;5052821;28;20159;-52
2022/11/19 05:33:23;;;;;;;13.52;7.85;;;6.10;99.90;;;;;;5052708;28;20174;-51
2022/11/19 05:35:49;;;;;;;16.17;9.30;;;6.00;99.90;;;;;;5053216;28;20189;-49
2022/11/19 05:38:14;;;;;;;15.88;9.18;;;5.90;99.90;;;;;;5052678;28;20240;-49
2022/11/19 05:40:42;;;;;;;16.95;10.38;;;6.00;99.90;;;;;;5052624;28;20170;-51
2022/11/19 05:43:08;;;;;;;15.82;9.85;;;6.00;99.90;;;;;;5052833;28;20173;-50
2022/11/19 05:45:34;;;;;;;15.40;8.90;;;6.00;99.90;;;;;;5052559;28;20167;-50
2022/11/19 05:47:59;;;;;;;15.23;9.38;;;6.00;99.90;;;;;;5052471;28;20202;-50
2022/11/19 05:50:25;;;;;;;18.20;10.10;;;5.90;99.90;;;;;;5052355;28;20261;-50
2022/11/19 05:52:51;;;;;;;18.23;9.20;;;5.90;99.90;;;;;;5052427;28;20171;-50
2022/11/19 05:55:16;;;;;;;19.27;9.35;;;5.90;99.90;;;;;;5052752;28;20622;-51
2022/11/19 05:57:42;;;;;;;13.02;8.55;;;5.90;99.90;;;;;;5052334;28;20569;-50
2022/11/19 06:00:09;;;;;;;14.55;9.25;;;5.90;99.90;;;;;;5052091;28;20225;-50
2022/11/19 06:02:35;;;;;;;17.23;9.68;;;6.00;99.90;;;;;;5051674;28;20175;-50
2022/11/19 06:05:01;;;;;;;15.43;8.90;;;6.00;99.90;;;;;;5052222;28;20166;-50
2022/11/19 06:07:26;;;;;;;15.05;8.65;;;6.00;99.90;;;;;;5052151;28;20167;-50
2022/11/19 06:09:52;;;;;;;15.63;8.75;;;6.10;99.90;;;;;;5052031;28;20252;-50
2022/11/19 06:12:17;;;;;;;5.88;4.50;;;6.10;99.90;;;;;;5052638;28;20212;-50
2022/11/19 06:14:43;;;;;;;5.18;3.72;;;6.10;99.90;;;;;;5052042;28;20185;-50
2022/11/19 06:17:09;;;;;;;4.45;2.95;;;6.20;99.90;;;;;;5051976;28;20190;-49
2022/11/19 06:19:34;;;;;;;3.72;3.38;;;6.10;99.90;;;;;;5051954;28;20173;-49
2022/11/19 06:22:00;;;;;;;4.65;3.97;;;6.20;99.90;;;;;;5052219;28;20166;-50
2022/11/19 06:24:26;;;;;;;4.38;3.25;;;6.20;99.90;;;;;;5052070;28;20167;-50
2022/11/19 06:26:51;;;;;;;4.50;4.00;;;6.10;99.90;;;;;;5051722;28;20162;-49
2022/11/19 06:29:18;;;;;;;5.50;3.70;;;6.20;99.90;;;;;;5052143;28;20202;-50
2022/11/19 06:31:44;;;;;;;6.47;4.13;;;6.20;99.90;;;;;;5051743;28;20630;-52
2022/11/19 06:34:09;;;;;;;5.85;4.30;;;6.30;99.90;;;;;;5051676;28;20180;-51
2022/11/19 06:36:35;;;;;;;4.95;4.18;;;6.20;99.90;;;;;;5051734;28;20249;-50
2022/11/19 06:39:01;;;;;;;5.45;4.00;;;6.30;99.90;;;;;;5051761;28;20193;-51
2022/11/19 06:41:26;;;;;;;5.90;4.38;;;6.30;99.90;;;;;;5051727;28;20170;-51
2022/11/19 06:43:52;;;;;;;5.20;4.70;;;6.30;99.90;;;;;;5051581;28;20170;-51
2022/11/19 06:46:17;;;;;;;7.18;4.50;;;6.30;99.90;;;;;;5052009;28;20170;-52
2022/11/19 06:48:43;;;;;;;7.60;4.78;;;6.30;99.90;;;;;;5051524;28;20202;-50
2022/11/19 06:51:08;;;;;;;6.13;4.40;;;6.30;99.90;;;;;;5051612;28;20167;-52
2022/11/19 06:53:34;;;;;;;5.22;4.13;;;6.20;99.90;;;;;;5051574;28;20656;-50
2022/11/19 06:56:02;;;;;;;5.75;4.65;;;6.20;99.90;;;;;;5051839;28;20174;-51
2022/11/19 06:58:28;;;;;;;5.97;5.10;;;6.20;99.90;;;;;;5051551;28;20170;-51
2022/11/19 07:00:55;;;;;;;4.95;4.03;;;6.40;99.90;;;;;;5051377;28;20226;-52
2022/11/19 07:03:21;;;;;;;7.93;4.82;;;6.30;99.90;;;;;;5051452;28;20173;-50
2022/11/19 07:05:48;;;;;;;7.50;5.57;;;6.30;99.90;;;;;;5051823;28;20240;-50
2022/11/19 07:08:14;;;;;;;6.78;5.57;;;6.30;99.90;;;;;;5051329;28;20752;-52
2022/11/19 07:10:39;;;;;;;8.70;6.38;;;6.20;99.90;;;;;;5051444;28;20171;-52
2022/11/19 07:13:05;;;;;;;8.52;6.95;;;6.20;99.90;;;;;;5051393;28;20634;-52
2022/11/19 07:15:31;;;;;;;10.57;7.07;;;6.20;99.90;;;;;;5051461;28;20254;-50
2022/11/19 07:17:56;;;;;;;12.73;8.68;;;6.20;99.90;;;;;;5051356;28;20170;-51
2022/11/19 07:20:22;;;;;;;12.10;8.93;;;6.20;99.90;;;;;;5051080;28;20190;-51
2022/11/19 07:22:47;;;;;;;11.52;8.65;;;6.10;99.90;;;;;;5051173;28;20533;-52
2022/11/19 07:25:13;;;;;;;10.93;8.10;;;6.00;99.90;;;;;;5051292;28;20551;-52
2022/11/19 07:27:39;;;;;;;12.20;8.95;;;5.90;99.90;;;;;;5051277;28;20175;-52
2022/11/19 07:30:06;;;;;;;14.25;9.38;;;5.90;99.90;;;;;;5051213;28;20175;-51
2022/11/19 07:32:35;;;;;;;15.25;9.63;;;5.90;99.90;;;;;;5051462;28;20178;-52
2022/11/19 07:35:00;;;;;;;13.35;8.50;;;5.80;99.90;;;;;;5051196;28;20194;-52
2022/11/19 07:37:26;;;;;;;13.93;9.07;;;5.80;99.90;;;;;;5054729;28;20646;-53
2022/11/19 07:39:51;;;;;;;12.68;9.40;;;5.80;99.90;;;;;;5055008;28;20159;-53
2022/11/19 07:45:02;;;;;;;12.27;8.27;;;5.70;99.90;;;;;;5054877;28;20213;-53
2022/11/19 07:47:27;;;;;;;10.73;8.85;;;5.80;99.90;;;;;;5054743;28;20552;-52
2022/11/19 07:49:53;;;;;;;15.95;10.07;;;5.90;99.90;;;;;;5073019;28;20213;-49
2022/11/19 07:52:20;;;;;;;12.60;9.27;;;5.90;99.90;;;;;;5074397;28;20524;-52
2022/11/19 07:54:45;;;;;;;12.43;9.32;;;5.90;99.90;;;;;;5074532;28;20180;-50
2022/11/19 07:57:11;;;;;;;13.68;9.85;;;5.90;99.90;;;;;;5074444;28;20190;-51
2022/11/19 07:59:37;;;;;;;13.20;8.93;;;5.80;99.90;;;;;;5074397;28;20213;-51
2022/11/19 08:02:02;;;;;;;13.88;9.50;;;5.80;99.90;;;;;;5073533;28;20174;-50
2022/11/19 08:04:28;;;;;;;17.08;10.43;;;5.90;99.90;;;;;;5074354;28;20166;-52
2022/11/19 08:06:54;;;;;;;15.70;10.55;;;5.90;99.90;;;;;;5074464;28;20212;-51
2022/11/19 08:09:20;;;;;;;13.70;9.57;;;5.90;99.90;;;;;;5074655;28;20233;-50
2022/11/19 08:11:45;;;;;;;14.73;10.23;;;5.70;99.90;;;;;;5056071;28;20162;-52
2022/11/19 08:14:12;;;;;;;15.50;9.88;;;5.80;99.90;;;;;;5073714;28;20162;-48
2022/11/19 08:19:22;;;;;;;13.57;10.38;;;5.90;99.90;;;;;;5073706;28;20609;-51
2022/11/19 08:21:48;;;;;;;15.50;10.70;;;5.90;99.90;;;;;;5074008;28;20154;-50
2022/11/19 08:24:16;;;;;;;16.08;10.95;;;5.80;99.90;;;;;;5073273;28;20166;-49
2022/11/19 08:26:42;;;;;;;20.85;11.10;;;5.90;99.90;;;;;;5073273;28;20173;-50
2022/11/19 08:29:09;;;;;;;13.23;10.43;;;5.90;99.90;;;;;;5073611;28;20572;-52
2022/11/19 08:31:34;;;;;;;17.33;10.73;;;6.00;99.90;;;;;;5073447;28;20162;-52
2022/11/19 08:34:01;;;;;;;14.57;9.80;;;5.90;99.90;;;;;;5073826;28;20181;-50
2022/11/19 08:36:27;;;;;;;16.38;10.70;;;5.90;99.90;;;;;;5073543;28;20166;-50
2022/11/19 08:38:56;;;;;;;15.35;10.75;;;5.90;99.90;;;;;;5073669;28;20166;-51
2022/11/19 08:44:06;;;;;;;17.20;11.15;;;5.90;99.90;;;;;;5073604;28;20223;-52
2022/11/19 08:46:32;;;;;;;15.00;10.65;;;5.90;99.90;;;;;;5073305;28;20166;-53
2022/11/19 08:48:57;;;;;;;19.75;11.07;;;5.90;99.90;;;;;;5071840;28;20228;-51
2022/11/19 08:51:23;;;;;;;15.73;11.00;;;5.90;99.90;;;;;;5072208;28;20192;-50
2022/11/19 08:53:51;;;;;;;15.25;10.68;;;5.90;99.90;;;;;;5072038;28;20201;-50
2022/11/19 08:56:17;;;;;;;15.73;11.20;;;6.00;99.90;;;;;;5071677;28;20630;-50
2022/11/19 08:58:43;;;;;;;16.38;10.93;;;6.00;99.90;;;;;;5037081;28;20174;-51
2022/11/19 09:01:10;;;;;;;15.13;11.18;;;6.00;99.90;;;;;;5071487;28;20222;-52
2022/11/19 09:03:36;;;;;;;15.45;11.10;;;6.10;99.90;;;;;;5071875;28;20227;-50
2022/11/19 09:06:02;;;;;;;15.18;10.98;;;6.10;99.90;;;;;;5071742;28;20562;-50
2022/11/19 09:08:28;;;;;;;15.02;10.70;;;6.10;99.90;;;;;;5071565;28;20229;-50
2022/11/19 09:10:54;;;;;;;15.73;11.25;;;6.00;99.90;;;;;;5071421;28;20254;-51
2022/11/19 09:13:20;;;;;;;12.77;10.23;;;6.00;99.90;;;;;;5072788;28;20255;-50
2022/11/19 09:15:50;;;;;;;16.27;11.93;;;5.90;99.90;;;;;;5071567;28;20182;-51
2022/11/19 09:18:15;;;;;;;16.58;11.45;;;5.90;99.90;;;;;;5071591;28;20165;-50
2022/11/19 09:20:41;;;;;;;14.35;10.63;;;6.00;99.90;;;;;;5071665;28;20178;-51
2022/11/19 09:23:07;;;;;;;14.00;10.82;;;5.90;99.90;;;;;;5071368;28;20184;-52
2022/11/19 09:25:32;;;;;;;15.13;11.57;;;5.90;99.90;;;;;;5071174;28;20257;-50
2022/11/19 09:27:58;;;;;;;15.27;10.25;;;6.00;99.90;;;;;;5070773;28;20198;-50
2022/11/19 09:30:24;;;;;;;14.65;10.27;;;6.00;99.90;;;;;;5071079;28;20202;-52
2022/11/19 09:32:50;;;;;;;13.07;9.77;;;6.10;99.90;;;;;;5071441;28;20170;-50
2022/11/19 09:35:16;;;;;;;13.48;9.00;;;6.10;99.90;;;;;;5070803;28;20172;-51
2022/11/19 09:37:41;;;;;;;16.35;9.75;;;6.20;99.90;;;;;;5071157;28;20165;-51
2022/11/19 09:40:14;;;;;;;13.15;9.50;;;6.30;99.90;;;;;;5070888;28;20561;-50
2022/11/19 09:43:01;;;;;;;14.38;9.65;;;6.30;99.90;;;;;;5070923;28;20166;-50
2022/11/19 09:45:27;;;;;;;12.35;9.32;;;6.20;99.90;;;;;;5070689;28;20165;-51
2022/11/19 09:48:17;;;;;;;14.10;10.60;;;6.10;99.90;;;;;;5070634;28;20172;-50
2022/11/19 09:50:48;;;;;;;13.25;9.85;;;6.10;99.90;;;;;;5062244;28;20879;-54
2022/11/19 09:53:18;;;;;;;12.68;9.63;;;6.10;99.90;;;;;;5067709;28;20227;-50
2022/11/19 09:55:46;;;;;;;12.50;9.05;;;8.70;99.90;;;;;;5070580;28;20162;-52
2022/11/19 09:58:26;;;;;;;12.48;9.48;;;6.00;99.90;;;;;;5062487;28;20643;-51
2022/11/19 10:00:51;;;;;;;13.15;9.32;;;6.20;99.90;;;;;;5053776;28;20226;-51
2022/11/19 10:03:21;;;;;;;11.93;8.82;;;6.30;99.90;;;;;;5050993;28;20650;-50
2022/11/19 10:06:24;;;;;;;11.25;7.82;;;6.20;99.90;;;;;;5069388;28;20194;-51
2022/11/19 10:08:53;;;;;;;12.77;8.57;;;6.20;99.90;;;;;;5070979;28;20205;-51
2022/11/19 10:11:56;;;;;;;11.00;8.43;;;6.30;99.90;;;;;;5060400;28;20623;-51
2022/11/19 10:14:42;;;;;;;12.25;8.93;;;6.10;99.90;;;;;;5057720;28;20232;-51
2022/11/19 10:17:24;;;;;;;11.52;8.50;;;6.20;99.90;;;;;;5066189;28;20542;-51
2022/11/19 10:20:13;;;;;;;13.05;9.38;;;6.20;99.90;;;;;;5068582;28;20212;-51
2022/11/19 10:22:48;;;;;;;11.52;8.50;;;6.20;99.90;;;;;;5069828;28;20826;-51
2022/11/19 10:25:22;;;;;;;11.00;7.90;;;6.10;99.90;;;;;;5070210;28;20172;-52
2022/11/19 10:27:56;;;;;;;12.38;8.70;;;6.00;99.90;;;;;;5066628;28;20551;-51
2022/11/19 10:30:24;;;;;;;13.38;8.77;;;6.10;99.90;;;;;;5060585;28;20709;-50
2022/11/19 10:33:15;;;;;;;13.40;9.02;;;6.20;99.90;;;;;;5067918;28;20182;-51
2022/11/19 10:35:50;;;;;;;12.32;8.75;;;6.30;99.90;;;;;;5054049;28;20272;-51
2022/11/19 10:38:34;;;;;;;11.70;8.40;;;6.20;99.90;;;;;;5052807;28;20178;-50
2022/11/19 10:41:12;;;;;;;11.70;8.10;;;6.20;99.90;;;;;;5069012;28;20571;-51
2022/11/19 10:43:50;;;;;;;13.23;8.48;;;6.20;99.90;;;;;;5064948;28;20171;-49
2022/11/19 10:46:23;;;;;;;12.25;8.75;;;6.20;99.90;;;;;;5049524;28;20623;-51
2022/11/19 10:48:53;;;;;;;10.32;8.15;;;5.90;99.90;;;;;;5056887;28;20285;-52
2022/11/19 10:51:40;;;;;;;12.00;8.63;;;6.20;99.90;;;;;;5064061;28;20166;-51
2022/11/19 10:54:20;;;;;;;10.95;8.75;;;6.10;99.90;;;;;;5057789;28;20220;-52
2022/11/19 10:56:46;;;;;;;10.38;7.80;;;6.10;99.90;;;;;;5058338;28;20170;-54
2022/11/19 10:59:22;;;;;;;11.95;8.02;;;6.20;99.90;;;;;;5069684;28;20166;-51
2022/11/19 11:01:52;;;;;;;10.35;7.20;;;6.10;99.90;;;;;;5064226;28;20188;-50
2022/11/19 11:04:24;;;;;;;10.02;7.55;;;6.10;99.90;;;;;;5049765;28;20171;-51
2022/11/19 11:06:56;;;;;;;11.57;7.65;;;6.10;99.90;;;;;;5066659;28;20174;-51
2022/11/19 11:09:42;;;;;;;12.98;7.60;;;6.10;99.90;;;;;;5069696;28;20606;-57
2022/11/19 11:15:21;;;;;;;10.50;7.38;;;6.30;99.90;;;;;;5072762;28;20193;-52
2022/11/19 11:17:58;;;;;;;10.63;7.35;;;6.30;99.90;;;;;;5070247;28;20166;-51
2022/11/19 11:20:27;;;;;;;12.82;8.48;;;6.40;99.90;;;;;;5072690;28;20185;-51
2022/11/19 11:23:10;;;;;;;9.55;7.28;;;6.30;99.90;;;;;;5066745;28;20183;-52
2022/11/19 11:25:37;;;;;;;9.98;6.70;;;6.30;99.90;;;;;;5067523;28;20192;-50
2022/11/19 11:28:15;;;;;;;12.23;6.90;;;6.10;99.90;;;;;;5059684;28;20178;-52
2022/11/19 11:31:01;;;;;;;11.32;7.85;;;6.10;99.90;;;;;;5036928;28;20182;-51
2022/11/19 11:33:31;;;;;;;11.77;7.22;;;6.20;99.90;;;;;;5055087;28;20536;-52
2022/11/19 11:36:21;;;;;;;10.43;6.97;;;6.20;99.90;;;;;;5054995;28;20186;-51
2022/11/19 11:38:49;;;;;;;10.68;7.78;;;6.20;99.90;;;;;;5054706;28;20167;-51
2022/11/19 11:41:17;;;;;;;10.23;7.88;;;6.20;99.90;;;;;;5053062;28;20182;-54
2022/11/19 11:44:02;;;;;;;9.88;6.95;;;6.20;99.90;;;;;;5053002;28;20182;-51
2022/11/19 11:46:49;;;;;;;8.88;6.88;;;6.20;99.90;;;;;;5053093;28;20163;-56
2022/11/19 11:49:36;;;;;;;11.27;7.40;;;6.10;99.90;;;;;;5052928;28;20400;-59
2022/11/19 11:52:10;;;;;;;12.88;8.27;;;6.10;99.90;;;;;;5053206;28;20170;-51
2022/11/19 11:54:52;;;;;;;10.38;6.90;;;6.10;99.90;;;;;;5054202;28;20166;-52
2022/11/19 11:57:20;;;;;;;9.07;7.10;;;6.10;99.90;;;;;;5055323;28;20511;-51
2022/11/19 11:59:46;;;;;;;10.50;7.47;;;6.20;99.90;;;;;;5054431;28;20216;-51
2022/11/19 12:02:21;;;;;;;12.45;8.65;;;6.30;99.90;;;;;;5053095;28;20248;-55
2022/11/19 12:04:50;;;;;;;10.63;7.68;;;6.40;99.90;;;;;;5053007;28;20586;-52
2022/11/19 12:07:44;;;;;;;23.80;12.48;;;6.30;99.90;;;;;;5052270;28;20171;-53
2022/11/19 12:10:36;;;;;;;8.88;6.75;;;6.40;99.90;;;;;;5052646;28;20225;-51
2022/11/19 12:13:48;;;;;;;9.93;7.50;;;6.30;99.90;;;;;;5052601;28;20186;-56
2022/11/19 12:16:23;;;;;;;10.50;6.78;;;6.40;99.90;;;;;;5053314;28;20644;-55
2022/11/19 12:19:12;;;;;;;9.52;7.15;;;6.50;99.90;;;;;;5054745;28;20193;-55
2022/11/19 12:21:48;;;;;;;12.68;8.48;;;6.50;99.90;;;;;;5054056;28;20171;-56
2022/11/19 12:24:29;;;;;;;11.45;7.40;;;6.50;99.90;;;;;;5054360;28;20167;-55
2022/11/19 12:27:13;;;;;;;10.50;7.57;;;6.50;99.90;;;;;;5053966;28;20646;-54
2022/11/19 12:29:41;;;;;;;9.48;7.03;;;6.70;99.90;;;;;;5053555;28;20288;-56
2022/11/19 12:32:54;;;;;;;9.90;6.70;;;6.70;99.90;;;;;;5053181;28;20233;-52
2022/11/19 12:35:38;;;;;;;10.27;7.32;;;6.70;99.90;;;;;;5023695;28;20638;-54
2022/11/19 12:38:25;;;;;;;10.18;8.10;;;6.70;99.90;;;;;;5053867;28;20166;-52
2022/11/19 12:41:22;;;;;;;12.45;7.30;;;6.60;99.90;;;;;;5054528;28;20175;-54
2022/11/19 12:43:58;;;;;;;9.68;6.68;;;6.70;99.90;;;;;;5053374;28;20170;-57
2022/11/19 12:46:49;;;;;;;9.32;6.95;;;6.70;99.90;;;;;;5053791;28;20174;-53
2022/11/19 12:49:36;;;;;;;10.25;7.18;;;6.70;99.90;;;;;;5053636;28;20214;-50
2022/11/19 12:52:04;;;;;;;28.23;17.02;;;6.60;99.90;;;;;;5053553;28;20162;-53
2022/11/19 12:55:03;;;;;;;9.05;7.18;;;6.60;99.90;;;;;;5051636;28;20171;-53
2022/11/19 12:57:53;;;;;;;10.38;7.63;;;6.60;99.90;;;;;;5051427;28;20170;-51
2022/11/19 13:00:21;;;;;;;12.20;8.15;;;6.50;99.90;;;;;;5051671;28;20359;-54
2022/11/19 13:03:19;;;;;;;10.93;7.25;;;6.50;99.90;;;;;;5052671;28;20204;-52
2022/11/19 13:06:03;;;;;;;10.45;7.15;;;6.50;99.90;;;;;;5051821;28;20183;-54
2022/11/19 13:08:29;;;;;;;12.40;8.10;;;6.50;99.90;;;;;;5052224;28;20190;-55
2022/11/19 13:11:17;;;;;;;11.57;7.70;;;6.40;99.90;;;;;;5051954;28;20258;-52
2022/11/19 13:13:51;;;;;;;13.63;7.80;;;6.40;99.90;;;;;;5051573;28;20159;-54
2022/11/19 13:16:20;;;;;;;10.65;7.60;;;6.40;99.90;;;;;;5051735;28;20656;-55
2022/11/19 13:18:50;;;;;;;11.88;7.65;;;6.40;99.90;;;;;;5051061;28;20828;-55
2022/11/19 13:21:32;;;;;;;12.02;8.23;;;6.50;99.90;;;;;;5051046;28;20192;-55
2022/11/19 13:24:08;;;;;;;12.95;8.15;;;6.50;99.90;;;;;;5051035;28;20417;-55
2022/11/19 13:26:35;;;;;;;14.90;8.10;;;6.50;99.90;;;;;;5051712;28;20177;-57